• pl
  • eng

Awiacja
NEWS
last updated: 12.09.2019 14:49<\/div>
Dear users,
We would like to inform you that from September 2nd a test form of the GAFOR forecast is available on our webpage. Please send your comments and suggestions to gafor@imgw.pl that will contribute to product development.
METAR messages from military airports. 17:01 10.07.2020

METAR EPCE 101500Z 16006KT 120V210 9999 FEW012 BKN052 19/17
Q1006 RMK 189 087 7/2 LTG DSNT S=

METAR EPDA 101500Z 18005KT 9999 BKN042 BKN074 20/18
Q1005 RMK 195 089 7/5=

METAR EPDE 101500Z 18012KT 9999 SCT070 31/14 Q1010 RMK 314 035 3/3=

METAR EPIR 101500Z NIL=

METAR EPKS 101500Z 22006KT 9999 FEW040CB BKN180 28/17 Q1006 RMK 281
052 6/2 LTG DSNT N=

METAR EPLK 101500Z 22013KT 190V250 9999 SCT060 30/14 Q1008 RMK 303
036 4/4=

METAR EPLY 101500Z 20012KT 9999 FEW060 BKN100 30/17 Q1007 RMK 297 045
5/2=

METAR EPMB 101500Z 12003KT 9999 SCT030 OVC050 21/17 Q1007 RERA RMK
205 082 8/3=

METAR EPMI 101500Z 16008KT 140V200 9999 SCT022CB BKN033 BKN130 21/18
Q1006 RESHRA RMK 208 086 7/3 =

METAR EPMM 101500Z VRB02KT 9999 FEW054 BKN210 25/20 Q1010 RMK 249
073 6/3=

METAR EPNA 101500Z NIL=

METAR EPOK 101500Z 14012KT 9999 FEW018 BKN061 18/16
Q1006 RMK 181 090 7/2=

METAR EPPR 101500Z 16004KT 9999 SCT038 BKN076 20/17 Q1007 RMK 197 084
7/4=

METAR EPPW 101500Z VRB02KT 9999 VCSH FEW024 SCT033CB BKN170 23/19
Q1006 RESHRA RMK 231 077 7/2 =

METAR EPRA 101500Z 21012KT 9999 SCT060 SCT200 30/15 Q1010 RMK 296 040
4/3=

METAR EPSN 101500Z 17008KT 140V200 9999 BKN028 23/17 Q1005 RMK 225
073 6/6=

METAR EPTM 101500Z 18008KT 9999 SCT050 BKN100 31/13 Q1009 RMK 305 033
5/3=
Awiacja.imgw.pl jest pogodowym serwisem informacyjnym
Instytutu Meteorologii i Gospodarki Wodnej Państwowego Instytutu Badawczego.
Copyright IMGW PIB 2009-2019© Wszelkie prawa zastrzeżone.